sensor_id;sensor_type;location;lat;lon;timestamp;P1;durP1;ratioP1;P2;durP2;ratioP2
15096;SDS011;7649;52.084;7.478;2023-04-06T00:00:06;10.03;;;8.43;;
15096;SDS011;7649;52.084;7.478;2023-04-06T00:02:35;11.67;;;8.37;;
15096;SDS011;7649;52.084;7.478;2023-04-06T00:05:04;9.70;;;8.77;;
15096;SDS011;7649;52.084;7.478;2023-04-06T00:07:33;26.40;;;9.43;;
15096;SDS011;7649;52.084;7.478;2023-04-06T00:10:02;10.37;;;8.33;;
15096;SDS011;7649;52.084;7.478;2023-04-06T00:12:32;9.53;;;8.53;;
15096;SDS011;7649;52.084;7.478;2023-04-06T00:15:00;9.73;;;8.07;;
15096;SDS011;7649;52.084;7.478;2023-04-06T00:17:29;9.53;;;8.40;;
15096;SDS011;7649;52.084;7.478;2023-04-06T00:19:57;11.20;;;8.40;;
15096;SDS011;7649;52.084;7.478;2023-04-06T00:22:26;9.37;;;8.17;;
15096;SDS011;7649;52.084;7.478;2023-04-06T00:24:54;9.43;;;8.50;;
15096;SDS011;7649;52.084;7.478;2023-04-06T00:27:22;9.37;;;8.37;;
15096;SDS011;7649;52.084;7.478;2023-04-06T00:29:52;9.63;;;8.60;;
15096;SDS011;7649;52.084;7.478;2023-04-06T00:32:20;10.73;;;8.13;;
15096;SDS011;7649;52.084;7.478;2023-04-06T00:34:49;9.80;;;8.07;;
15096;SDS011;7649;52.084;7.478;2023-04-06T00:37:17;10.93;;;8.63;;
15096;SDS011;7649;52.084;7.478;2023-04-06T00:39:46;8.77;;;7.90;;
15096;SDS011;7649;52.084;7.478;2023-04-06T00:42:14;8.87;;;7.97;;
15096;SDS011;7649;52.084;7.478;2023-04-06T00:44:44;9.10;;;8.20;;
15096;SDS011;7649;52.084;7.478;2023-04-06T00:47:13;11.63;;;8.33;;
15096;SDS011;7649;52.084;7.478;2023-04-06T00:49:42;9.93;;;7.90;;
15096;SDS011;7649;52.084;7.478;2023-04-06T00:52:10;8.87;;;7.97;;
15096;SDS011;7649;52.084;7.478;2023-04-06T00:54:38;9.73;;;7.83;;
15096;SDS011;7649;52.084;7.478;2023-04-06T00:57:07;9.43;;;8.43;;
15096;SDS011;7649;52.084;7.478;2023-04-06T00:59:35;9.93;;;8.33;;
15096;SDS011;7649;52.084;7.478;2023-04-06T01:02:04;8.93;;;8.00;;
15096;SDS011;7649;52.084;7.478;2023-04-06T01:04:33;8.93;;;8.03;;
15096;SDS011;7649;52.084;7.478;2023-04-06T01:07:02;9.40;;;8.47;;
15096;SDS011;7649;52.084;7.478;2023-04-06T01:09:30;9.47;;;8.47;;
15096;SDS011;7649;52.084;7.478;2023-04-06T01:11:58;10.07;;;8.83;;
15096;SDS011;7649;52.084;7.478;2023-04-06T01:14:27;9.20;;;8.20;;
15096;SDS011;7649;52.084;7.478;2023-04-06T01:16:57;9.40;;;8.33;;
15096;SDS011;7649;52.084;7.478;2023-04-06T01:19:25;10.63;;;8.13;;
15096;SDS011;7649;52.084;7.478;2023-04-06T01:21:55;9.17;;;8.00;;
15096;SDS011;7649;52.084;7.478;2023-04-06T01:24:25;8.87;;;7.70;;
15096;SDS011;7649;52.084;7.478;2023-04-06T01:26:53;10.30;;;8.87;;
15096;SDS011;7649;52.084;7.478;2023-04-06T01:29:22;9.07;;;8.13;;
15096;SDS011;7649;52.084;7.478;2023-04-06T01:31:51;9.23;;;8.40;;
15096;SDS011;7649;52.084;7.478;2023-04-06T01:34:19;9.90;;;7.80;;
15096;SDS011;7649;52.084;7.478;2023-04-06T01:36:47;10.63;;;7.80;;
15096;SDS011;7649;52.084;7.478;2023-04-06T01:39:16;8.70;;;7.80;;
15096;SDS011;7649;52.084;7.478;2023-04-06T01:41:46;10.00;;;8.30;;
15096;SDS011;7649;52.084;7.478;2023-04-06T01:44:15;10.07;;;8.10;;
15096;SDS011;7649;52.084;7.478;2023-04-06T01:46:44;8.30;;;7.50;;
15096;SDS011;7649;52.084;7.478;2023-04-06T01:49:12;9.23;;;8.30;;
15096;SDS011;7649;52.084;7.478;2023-04-06T01:51:41;9.33;;;8.30;;
15096;SDS011;7649;52.084;7.478;2023-04-06T01:54:09;9.37;;;7.60;;
15096;SDS011;7649;52.084;7.478;2023-04-06T01:56:37;9.20;;;8.30;;
15096;SDS011;7649;52.084;7.478;2023-04-06T01:59:08;10.03;;;8.10;;
15096;SDS011;7649;52.084;7.478;2023-04-06T02:01:36;13.90;;;8.67;;
15096;SDS011;7649;52.084;7.478;2023-04-06T02:04:05;13.47;;;9.13;;
15096;SDS011;7649;52.084;7.478;2023-04-06T02:06:33;10.13;;;8.20;;
15096;SDS011;7649;52.084;7.478;2023-04-06T02:09:01;12.37;;;8.83;;
15096;SDS011;7649;52.084;7.478;2023-04-06T02:11:30;10.20;;;8.83;;
15096;SDS011;7649;52.084;7.478;2023-04-06T02:13:58;12.03;;;8.53;;
15096;SDS011;7649;52.084;7.478;2023-04-06T02:16:28;9.20;;;8.13;;
15096;SDS011;7649;52.084;7.478;2023-04-06T02:18:57;9.70;;;8.67;;
15096;SDS011;7649;52.084;7.478;2023-04-06T02:21:25;10.43;;;8.97;;
15096;SDS011;7649;52.084;7.478;2023-04-06T02:23:53;9.80;;;8.77;;
15096;SDS011;7649;52.084;7.478;2023-04-06T02:26:22;10.93;;;8.13;;
15096;SDS011;7649;52.084;7.478;2023-04-06T02:28:50;12.17;;;9.27;;
15096;SDS011;7649;52.084;7.478;2023-04-06T02:31:19;9.87;;;8.87;;
15096;SDS011;7649;52.084;7.478;2023-04-06T02:33:49;10.63;;;8.90;;
15096;SDS011;7649;52.084;7.478;2023-04-06T02:36:18;11.00;;;8.73;;
15096;SDS011;7649;52.084;7.478;2023-04-06T02:38:46;13.33;;;9.20;;
15096;SDS011;7649;52.084;7.478;2023-04-06T02:41:14;11.30;;;9.03;;
15096;SDS011;7649;52.084;7.478;2023-04-06T02:43:42;11.37;;;8.17;;
15096;SDS011;7649;52.084;7.478;2023-04-06T02:46:11;9.27;;;7.90;;
15096;SDS011;7649;52.084;7.478;2023-04-06T02:48:39;9.70;;;8.63;;
15096;SDS011;7649;52.084;7.478;2023-04-06T02:51:09;10.23;;;8.77;;
15096;SDS011;7649;52.084;7.478;2023-04-06T02:53:37;11.53;;;9.70;;
15096;SDS011;7649;52.084;7.478;2023-04-06T02:56:05;12.57;;;9.30;;
15096;SDS011;7649;52.084;7.478;2023-04-06T02:58:34;12.03;;;9.30;;
15096;SDS011;7649;52.084;7.478;2023-04-06T03:01:03;12.80;;;9.23;;
15096;SDS011;7649;52.084;7.478;2023-04-06T03:03:31;12.73;;;9.07;;
15096;SDS011;7649;52.084;7.478;2023-04-06T03:06:00;11.13;;;8.80;;
15096;SDS011;7649;52.084;7.478;2023-04-06T03:08:30;10.37;;;8.80;;
15096;SDS011;7649;52.084;7.478;2023-04-06T03:10:58;10.43;;;8.70;;
15096;SDS011;7649;52.084;7.478;2023-04-06T03:13:27;13.73;;;9.00;;
15096;SDS011;7649;52.084;7.478;2023-04-06T03:15:55;11.53;;;8.43;;
15096;SDS011;7649;52.084;7.478;2023-04-06T03:20:52;17.40;;;9.70;;
15096;SDS011;7649;52.084;7.478;2023-04-06T03:23:21;10.33;;;8.70;;
15096;SDS011;7649;52.084;7.478;2023-04-06T03:25:50;11.10;;;8.67;;
15096;SDS011;7649;52.084;7.478;2023-04-06T03:28:19;10.50;;;8.37;;
15096;SDS011;7649;52.084;7.478;2023-04-06T03:30:47;9.57;;;8.60;;
15096;SDS011;7649;52.084;7.478;2023-04-06T03:33:15;10.63;;;8.87;;
15096;SDS011;7649;52.084;7.478;2023-04-06T03:35:44;13.80;;;9.03;;
15096;SDS011;7649;52.084;7.478;2023-04-06T03:38:12;21.00;;;9.80;;
15096;SDS011;7649;52.084;7.478;2023-04-06T03:40:42;12.93;;;8.67;;
15096;SDS011;7649;52.084;7.478;2023-04-06T03:43:11;15.73;;;9.27;;
15096;SDS011;7649;52.084;7.478;2023-04-06T03:45:40;9.47;;;8.40;;
15096;SDS011;7649;52.084;7.478;2023-04-06T03:48:08;11.53;;;9.07;;
15096;SDS011;7649;52.084;7.478;2023-04-06T03:50:36;10.07;;;8.97;;
15096;SDS011;7649;52.084;7.478;2023-04-06T03:53:05;13.33;;;8.57;;
15096;SDS011;7649;52.084;7.478;2023-04-06T03:55:34;10.17;;;8.40;;
15096;SDS011;7649;52.084;7.478;2023-04-06T03:58:03;10.87;;;9.03;;
15096;SDS011;7649;52.084;7.478;2023-04-06T04:00:32;11.87;;;10.20;;
15096;SDS011;7649;52.084;7.478;2023-04-06T04:03:01;17.10;;;10.17;;
15096;SDS011;7649;52.084;7.478;2023-04-06T04:05:30;17.20;;;9.90;;
15096;SDS011;7649;52.084;7.478;2023-04-06T04:07:58;12.10;;;10.13;;
15096;SDS011;7649;52.084;7.478;2023-04-06T04:10:27;12.03;;;9.70;;
15096;SDS011;7649;52.084;7.478;2023-04-06T04:12:55;12.97;;;10.57;;
15096;SDS011;7649;52.084;7.478;2023-04-06T04:15:23;20.73;;;12.57;;
15096;SDS011;7649;52.084;7.478;2023-04-06T04:17:53;14.73;;;9.77;;
15096;SDS011;7649;52.084;7.478;2023-04-06T04:20:22;10.93;;;8.17;;
15096;SDS011;7649;52.084;7.478;2023-04-06T04:22:50;11.87;;;8.63;;
15096;SDS011;7649;52.084;7.478;2023-04-06T04:25:18;13.23;;;9.07;;
15096;SDS011;7649;52.084;7.478;2023-04-06T04:27:47;10.43;;;9.30;;
15096;SDS011;7649;52.084;7.478;2023-04-06T04:30:16;10.63;;;8.20;;
15096;SDS011;7649;52.084;7.478;2023-04-06T04:32:45;10.80;;;9.03;;
15096;SDS011;7649;52.084;7.478;2023-04-06T04:35:15;9.33;;;7.83;;
15096;SDS011;7649;52.084;7.478;2023-04-06T04:37:43;11.03;;;8.10;;
15096;SDS011;7649;52.084;7.478;2023-04-06T04:40:11;11.77;;;8.80;;
15096;SDS011;7649;52.084;7.478;2023-04-06T04:42:40;13.40;;;8.27;;
15096;SDS011;7649;52.084;7.478;2023-04-06T04:45:08;11.43;;;8.03;;
15096;SDS011;7649;52.084;7.478;2023-04-06T04:47:37;12.00;;;8.50;;
15096;SDS011;7649;52.084;7.478;2023-04-06T04:50:06;10.10;;;8.10;;
15096;SDS011;7649;52.084;7.478;2023-04-06T04:52:37;11.73;;;8.17;;
15096;SDS011;7649;52.084;7.478;2023-04-06T04:55:05;10.90;;;8.27;;
15096;SDS011;7649;52.084;7.478;2023-04-06T04:57:34;9.20;;;8.30;;
15096;SDS011;7649;52.084;7.478;2023-04-06T05:00:02;11.53;;;8.07;;
15096;SDS011;7649;52.084;7.478;2023-04-06T05:02:31;13.00;;;8.83;;
15096;SDS011;7649;52.084;7.478;2023-04-06T05:04:59;9.73;;;8.03;;
15096;SDS011;7649;52.084;7.478;2023-04-06T05:07:27;9.63;;;8.43;;
15096;SDS011;7649;52.084;7.478;2023-04-06T05:09:58;13.27;;;9.00;;
15096;SDS011;7649;52.084;7.478;2023-04-06T05:12:26;13.50;;;9.77;;
15096;SDS011;7649;52.084;7.478;2023-04-06T05:14:54;24.23;;;13.17;;
15096;SDS011;7649;52.084;7.478;2023-04-06T05:17:23;27.57;;;16.60;;
15096;SDS011;7649;52.084;7.478;2023-04-06T05:19:52;32.20;;;21.17;;
15096;SDS011;7649;52.084;7.478;2023-04-06T05:22:20;27.03;;;17.27;;
15096;SDS011;7649;52.084;7.478;2023-04-06T05:24:48;18.10;;;13.73;;
15096;SDS011;7649;52.084;7.478;2023-04-06T05:27:18;13.27;;;9.83;;
15096;SDS011;7649;52.084;7.478;2023-04-06T05:29:46;21.27;;;11.23;;
15096;SDS011;7649;52.084;7.478;2023-04-06T05:32:15;24.97;;;16.33;;
15096;SDS011;7649;52.084;7.478;2023-04-06T05:34:43;25.07;;;15.10;;
15096;SDS011;7649;52.084;7.478;2023-04-06T05:37:11;22.17;;;14.40;;
15096;SDS011;7649;52.084;7.478;2023-04-06T05:39:39;19.47;;;11.33;;
15096;SDS011;7649;52.084;7.478;2023-04-06T05:42:08;15.33;;;10.13;;
15096;SDS011;7649;52.084;7.478;2023-04-06T05:44:38;13.73;;;9.33;;
15096;SDS011;7649;52.084;7.478;2023-04-06T05:47:07;10.90;;;8.63;;
15096;SDS011;7649;52.084;7.478;2023-04-06T05:49:35;11.50;;;8.53;;
15096;SDS011;7649;52.084;7.478;2023-04-06T05:52:04;11.07;;;9.33;;
15096;SDS011;7649;52.084;7.478;2023-04-06T05:54:32;11.47;;;10.13;;
15096;SDS011;7649;52.084;7.478;2023-04-06T05:57:01;25.80;;;11.10;;
15096;SDS011;7649;52.084;7.478;2023-04-06T05:59:30;10.83;;;8.77;;
15096;SDS011;7649;52.084;7.478;2023-04-06T06:02:00;9.73;;;7.70;;
15096;SDS011;7649;52.084;7.478;2023-04-06T06:04:30;9.73;;;8.67;;
15096;SDS011;7649;52.084;7.478;2023-04-06T06:06:58;8.37;;;7.23;;
15096;SDS011;7649;52.084;7.478;2023-04-06T06:09:26;10.00;;;8.30;;
15096;SDS011;7649;52.084;7.478;2023-04-06T06:11:55;10.00;;;8.90;;
15096;SDS011;7649;52.084;7.478;2023-04-06T06:14:23;9.70;;;8.33;;
15096;SDS011;7649;52.084;7.478;2023-04-06T06:16:54;11.00;;;8.10;;
15096;SDS011;7649;52.084;7.478;2023-04-06T06:19:24;9.30;;;8.33;;
15096;SDS011;7649;52.084;7.478;2023-04-06T06:21:52;9.60;;;8.60;;
15096;SDS011;7649;52.084;7.478;2023-04-06T06:24:20;9.33;;;8.23;;
15096;SDS011;7649;52.084;7.478;2023-04-06T06:26:49;10.07;;;8.13;;
15096;SDS011;7649;52.084;7.478;2023-04-06T06:29:17;12.27;;;8.50;;
15096;SDS011;7649;52.084;7.478;2023-04-06T06:31:45;9.53;;;8.20;;
15096;SDS011;7649;52.084;7.478;2023-04-06T06:34:14;9.00;;;7.50;;
15096;SDS011;7649;52.084;7.478;2023-04-06T06:36:44;10.73;;;8.30;;
15096;SDS011;7649;52.084;7.478;2023-04-06T06:39:14;12.07;;;7.70;;
15096;SDS011;7649;52.084;7.478;2023-04-06T06:41:43;13.63;;;8.20;;
15096;SDS011;7649;52.084;7.478;2023-04-06T06:44:11;9.10;;;8.20;;
15096;SDS011;7649;52.084;7.478;2023-04-06T06:46:39;8.93;;;8.03;;
15096;SDS011;7649;52.084;7.478;2023-04-06T06:49:08;9.37;;;8.37;;
15096;SDS011;7649;52.084;7.478;2023-04-06T06:51:38;9.57;;;8.10;;
15096;SDS011;7649;52.084;7.478;2023-04-06T06:54:08;8.50;;;7.70;;
15096;SDS011;7649;52.084;7.478;2023-04-06T06:56:36;10.30;;;8.50;;
15096;SDS011;7649;52.084;7.478;2023-04-06T06:59:05;9.10;;;8.23;;
15096;SDS011;7649;52.084;7.478;2023-04-06T07:01:33;9.70;;;8.57;;
15096;SDS011;7649;52.084;7.478;2023-04-06T07:04:02;9.37;;;8.37;;
15096;SDS011;7649;52.084;7.478;2023-04-06T07:06:31;11.83;;;8.73;;
15096;SDS011;7649;52.084;7.478;2023-04-06T07:08:59;12.00;;;8.53;;
15096;SDS011;7649;52.084;7.478;2023-04-06T07:11:30;18.43;;;9.37;;
15096;SDS011;7649;52.084;7.478;2023-04-06T07:13:59;13.00;;;9.03;;
15096;SDS011;7649;52.084;7.478;2023-04-06T07:16:27;9.73;;;8.70;;
15096;SDS011;7649;52.084;7.478;2023-04-06T07:18:56;9.80;;;8.40;;
15096;SDS011;7649;52.084;7.478;2023-04-06T07:21:24;10.27;;;9.17;;
15096;SDS011;7649;52.084;7.478;2023-04-06T07:23:53;9.67;;;8.20;;
15096;SDS011;7649;52.084;7.478;2023-04-06T07:26:21;11.97;;;8.53;;
15096;SDS011;7649;52.084;7.478;2023-04-06T07:28:51;9.73;;;8.77;;
15096;SDS011;7649;52.084;7.478;2023-04-06T07:31:20;15.47;;;9.43;;
15096;SDS011;7649;52.084;7.478;2023-04-06T07:33:48;9.67;;;8.67;;
15096;SDS011;7649;52.084;7.478;2023-04-06T07:36:17;11.20;;;8.60;;
15096;SDS011;7649;52.084;7.478;2023-04-06T07:38:45;10.30;;;8.47;;
15096;SDS011;7649;52.084;7.478;2023-04-06T07:41:15;9.60;;;8.27;;
15096;SDS011;7649;52.084;7.478;2023-04-06T07:43:43;9.67;;;8.67;;
15096;SDS011;7649;52.084;7.478;2023-04-06T07:46:13;9.20;;;8.20;;
15096;SDS011;7649;52.084;7.478;2023-04-06T07:48:41;10.33;;;8.67;;
15096;SDS011;7649;52.084;7.478;2023-04-06T07:51:10;9.87;;;8.60;;
15096;SDS011;7649;52.084;7.478;2023-04-06T07:53:40;12.50;;;8.60;;
15096;SDS011;7649;52.084;7.478;2023-04-06T07:56:08;10.73;;;9.17;;
15096;SDS011;7649;52.084;7.478;2023-04-06T07:58:38;10.40;;;8.80;;
15096;SDS011;7649;52.084;7.478;2023-04-06T08:01:06;10.40;;;8.93;;
15096;SDS011;7649;52.084;7.478;2023-04-06T08:03:36;11.10;;;9.03;;
15096;SDS011;7649;52.084;7.478;2023-04-06T08:06:05;9.87;;;8.53;;
15096;SDS011;7649;52.084;7.478;2023-04-06T08:08:33;12.00;;;8.97;;
15096;SDS011;7649;52.084;7.478;2023-04-06T08:11:01;15.03;;;9.33;;
15096;SDS011;7649;52.084;7.478;2023-04-06T08:13:30;12.93;;;8.37;;
15096;SDS011;7649;52.084;7.478;2023-04-06T08:15:58;12.43;;;8.73;;
15096;SDS011;7649;52.084;7.478;2023-04-06T08:18:27;11.93;;;8.57;;
15096;SDS011;7649;52.084;7.478;2023-04-06T08:20:57;10.80;;;8.47;;
15096;SDS011;7649;52.084;7.478;2023-04-06T08:23:25;14.47;;;8.40;;
15096;SDS011;7649;52.084;7.478;2023-04-06T08:25:54;11.73;;;8.33;;
15096;SDS011;7649;52.084;7.478;2023-04-06T08:28:22;11.20;;;7.67;;
15096;SDS011;7649;52.084;7.478;2023-04-06T08:30:51;15.20;;;8.60;;
15096;SDS011;7649;52.084;7.478;2023-04-06T08:33:19;9.33;;;7.80;;
15096;SDS011;7649;52.084;7.478;2023-04-06T08:35:47;8.90;;;7.77;;
15096;SDS011;7649;52.084;7.478;2023-04-06T08:38:17;11.30;;;8.27;;
15096;SDS011;7649;52.084;7.478;2023-04-06T08:40:46;13.03;;;8.60;;
15096;SDS011;7649;52.084;7.478;2023-04-06T08:43:15;12.13;;;8.60;;
15096;SDS011;7649;52.084;7.478;2023-04-06T08:45:45;8.43;;;7.30;;
15096;SDS011;7649;52.084;7.478;2023-04-06T08:48:13;9.30;;;7.47;;
15096;SDS011;7649;52.084;7.478;2023-04-06T08:50:42;10.30;;;8.27;;
15096;SDS011;7649;52.084;7.478;2023-04-06T08:53:11;13.50;;;8.17;;
15096;SDS011;7649;52.084;7.478;2023-04-06T08:55:41;12.63;;;8.37;;
15096;SDS011;7649;52.084;7.478;2023-04-06T08:58:10;9.40;;;8.27;;
15096;SDS011;7649;52.084;7.478;2023-04-06T09:00:49;10.57;;;8.17;;
15096;SDS011;7649;52.084;7.478;2023-04-06T09:03:19;18.03;;;8.77;;
15096;SDS011;7649;52.084;7.478;2023-04-06T09:05:48;9.27;;;8.27;;
15096;SDS011;7649;52.084;7.478;2023-04-06T09:08:16;12.30;;;8.73;;
15096;SDS011;7649;52.084;7.478;2023-04-06T09:10:46;10.13;;;8.20;;
15096;SDS011;7649;52.084;7.478;2023-04-06T09:13:16;10.37;;;8.43;;
15096;SDS011;7649;52.084;7.478;2023-04-06T09:15:44;8.97;;;8.07;;
15096;SDS011;7649;52.084;7.478;2023-04-06T09:18:12;9.07;;;8.03;;
15096;SDS011;7649;52.084;7.478;2023-04-06T09:20:41;8.97;;;8.07;;
15096;SDS011;7649;52.084;7.478;2023-04-06T09:23:17;12.80;;;9.10;;
15096;SDS011;7649;52.084;7.478;2023-04-06T09:25:47;10.13;;;8.80;;
15096;SDS011;7649;52.084;7.478;2023-04-06T09:28:15;10.60;;;8.50;;
15096;SDS011;7649;52.084;7.478;2023-04-06T09:30:47;10.03;;;8.60;;
15096;SDS011;7649;52.084;7.478;2023-04-06T09:33:23;16.17;;;9.40;;
15096;SDS011;7649;52.084;7.478;2023-04-06T09:35:51;10.80;;;9.40;;
15096;SDS011;7649;52.084;7.478;2023-04-06T09:38:19;13.67;;;9.43;;
15096;SDS011;7649;52.084;7.478;2023-04-06T09:40:50;12.30;;;9.10;;
15096;SDS011;7649;52.084;7.478;2023-04-06T09:43:27;11.47;;;9.43;;
15096;SDS011;7649;52.084;7.478;2023-04-06T09:45:55;12.90;;;9.73;;
15096;SDS011;7649;52.084;7.478;2023-04-06T09:48:24;12.73;;;9.77;;
15096;SDS011;7649;52.084;7.478;2023-04-06T09:50:56;14.53;;;10.27;;
15096;SDS011;7649;52.084;7.478;2023-04-06T09:53:27;11.90;;;10.43;;
15096;SDS011;7649;52.084;7.478;2023-04-06T09:55:58;12.47;;;10.93;;
15096;SDS011;7649;52.084;7.478;2023-04-06T09:58:32;13.13;;;11.10;;
15096;SDS011;7649;52.084;7.478;2023-04-06T10:01:03;12.03;;;10.83;;
15096;SDS011;7649;52.084;7.478;2023-04-06T10:03:33;15.00;;;11.63;;
15096;SDS011;7649;52.084;7.478;2023-04-06T10:06:05;19.00;;;13.20;;
15096;SDS011;7649;52.084;7.478;2023-04-06T10:08:35;16.20;;;13.53;;
15096;SDS011;7649;52.084;7.478;2023-04-06T10:11:08;15.07;;;11.97;;
15096;SDS011;7649;52.084;7.478;2023-04-06T10:13:36;13.97;;;12.40;;
15096;SDS011;7649;52.084;7.478;2023-04-06T10:16:05;16.53;;;12.43;;
15096;SDS011;7649;52.084;7.478;2023-04-06T10:18:34;15.13;;;12.63;;
15096;SDS011;7649;52.084;7.478;2023-04-06T10:21:04;15.57;;;13.30;;
15096;SDS011;7649;52.084;7.478;2023-04-06T10:23:35;15.13;;;12.60;;
15096;SDS011;7649;52.084;7.478;2023-04-06T10:26:03;14.27;;;12.77;;
15096;SDS011;7649;52.084;7.478;2023-04-06T10:28:34;15.40;;;13.80;;
15096;SDS011;7649;52.084;7.478;2023-04-06T10:31:05;15.77;;;14.00;;
15096;SDS011;7649;52.084;7.478;2023-04-06T10:33:33;15.03;;;13.47;;
15096;SDS011;7649;52.084;7.478;2023-04-06T10:36:11;17.63;;;12.63;;
15096;SDS011;7649;52.084;7.478;2023-04-06T10:38:40;13.73;;;11.97;;
15096;SDS011;7649;52.084;7.478;2023-04-06T10:41:09;19.00;;;12.97;;
15096;SDS011;7649;52.084;7.478;2023-04-06T10:43:39;14.17;;;12.70;;
15096;SDS011;7649;52.084;7.478;2023-04-06T10:46:09;14.30;;;12.03;;
15096;SDS011;7649;52.084;7.478;2023-04-06T10:48:38;15.23;;;12.37;;
15096;SDS011;7649;52.084;7.478;2023-04-06T10:51:07;14.03;;;12.53;;
15096;SDS011;7649;52.084;7.478;2023-04-06T10:53:36;13.43;;;12.10;;
15096;SDS011;7649;52.084;7.478;2023-04-06T10:56:04;14.73;;;12.90;;
15096;SDS011;7649;52.084;7.478;2023-04-06T10:58:39;15.13;;;12.73;;
15096;SDS011;7649;52.084;7.478;2023-04-06T11:01:12;13.87;;;12.23;;
15096;SDS011;7649;52.084;7.478;2023-04-06T11:03:42;15.97;;;12.70;;
15096;SDS011;7649;52.084;7.478;2023-04-06T11:06:17;15.00;;;11.97;;
15096;SDS011;7649;52.084;7.478;2023-04-06T11:08:46;17.13;;;13.10;;
15096;SDS011;7649;52.084;7.478;2023-04-06T11:11:15;15.67;;;13.60;;
15096;SDS011;7649;52.084;7.478;2023-04-06T11:13:46;15.97;;;13.57;;
15096;SDS011;7649;52.084;7.478;2023-04-06T11:16:15;20.47;;;13.70;;
15096;SDS011;7649;52.084;7.478;2023-04-06T11:18:50;16.23;;;13.97;;
15096;SDS011;7649;52.084;7.478;2023-04-06T11:21:20;16.83;;;13.40;;
15096;SDS011;7649;52.084;7.478;2023-04-06T11:23:48;14.27;;;12.83;;
15096;SDS011;7649;52.084;7.478;2023-04-06T11:26:17;14.60;;;12.50;;
15096;SDS011;7649;52.084;7.478;2023-04-06T11:28:46;13.90;;;12.40;;
15096;SDS011;7649;52.084;7.478;2023-04-06T11:31:15;15.63;;;13.30;;
15096;SDS011;7649;52.084;7.478;2023-04-06T11:33:43;14.40;;;12.90;;
15096;SDS011;7649;52.084;7.478;2023-04-06T11:36:11;15.87;;;14.27;;
15096;SDS011;7649;52.084;7.478;2023-04-06T11:38:42;16.43;;;13.37;;
15096;SDS011;7649;52.084;7.478;2023-04-06T11:41:10;16.90;;;13.43;;
15096;SDS011;7649;52.084;7.478;2023-04-06T11:43:39;14.83;;;13.30;;
15096;SDS011;7649;52.084;7.478;2023-04-06T11:46:18;15.97;;;13.83;;
15096;SDS011;7649;52.084;7.478;2023-04-06T11:48:46;16.83;;;13.67;;
15096;SDS011;7649;52.084;7.478;2023-04-06T11:51:21;15.70;;;13.03;;
15096;SDS011;7649;52.084;7.478;2023-04-06T11:53:49;16.37;;;13.80;;
15096;SDS011;7649;52.084;7.478;2023-04-06T11:56:25;15.83;;;14.13;;
15096;SDS011;7649;52.084;7.478;2023-04-06T11:58:57;15.70;;;13.53;;
15096;SDS011;7649;52.084;7.478;2023-04-06T12:01:28;13.90;;;12.27;;
15096;SDS011;7649;52.084;7.478;2023-04-06T12:04:02;14.37;;;12.77;;
15096;SDS011;7649;52.084;7.478;2023-04-06T12:06:31;16.10;;;13.97;;
15096;SDS011;7649;52.084;7.478;2023-04-06T12:08:59;16.83;;;13.37;;
15096;SDS011;7649;52.084;7.478;2023-04-06T12:11:28;16.03;;;13.67;;
15096;SDS011;7649;52.084;7.478;2023-04-06T12:13:56;15.60;;;13.93;;
15096;SDS011;7649;52.084;7.478;2023-04-06T12:16:25;19.60;;;14.43;;
15096;SDS011;7649;52.084;7.478;2023-04-06T12:18:55;18.10;;;14.30;;
15096;SDS011;7649;52.084;7.478;2023-04-06T12:21:23;17.37;;;13.87;;
15096;SDS011;7649;52.084;7.478;2023-04-06T12:23:52;15.60;;;13.67;;
15096;SDS011;7649;52.084;7.478;2023-04-06T12:26:20;15.70;;;13.87;;
15096;SDS011;7649;52.084;7.478;2023-04-06T12:28:48;15.30;;;12.90;;
15096;SDS011;7649;52.084;7.478;2023-04-06T12:31:17;15.17;;;13.53;;
15096;SDS011;7649;52.084;7.478;2023-04-06T12:33:46;16.57;;;14.57;;
15096;SDS011;7649;52.084;7.478;2023-04-06T12:36:17;17.13;;;13.77;;
15096;SDS011;7649;52.084;7.478;2023-04-06T12:38:46;15.60;;;13.47;;
15096;SDS011;7649;52.084;7.478;2023-04-06T12:41:15;15.00;;;13.37;;
15096;SDS011;7649;52.084;7.478;2023-04-06T12:43:43;13.70;;;12.30;;
15096;SDS011;7649;52.084;7.478;2023-04-06T12:46:12;15.40;;;13.10;;
15096;SDS011;7649;52.084;7.478;2023-04-06T12:48:41;16.70;;;13.10;;
15096;SDS011;7649;52.084;7.478;2023-04-06T12:51:09;16.30;;;13.90;;
15096;SDS011;7649;52.084;7.478;2023-04-06T12:53:39;16.33;;;13.27;;
15096;SDS011;7649;52.084;7.478;2023-04-06T12:56:11;16.80;;;12.73;;
15096;SDS011;7649;52.084;7.478;2023-04-06T12:58:39;14.50;;;12.87;;
15096;SDS011;7649;52.084;7.478;2023-04-06T13:01:09;22.07;;;13.63;;
15096;SDS011;7649;52.084;7.478;2023-04-06T13:03:39;15.27;;;12.40;;
15096;SDS011;7649;52.084;7.478;2023-04-06T13:06:07;16.37;;;12.50;;
15096;SDS011;7649;52.084;7.478;2023-04-06T13:08:36;16.87;;;13.00;;
15096;SDS011;7649;52.084;7.478;2023-04-06T13:11:06;14.23;;;12.23;;
15096;SDS011;7649;52.084;7.478;2023-04-06T13:13:35;14.63;;;12.83;;
15096;SDS011;7649;52.084;7.478;2023-04-06T13:16:05;14.53;;;12.97;;
15096;SDS011;7649;52.084;7.478;2023-04-06T13:18:33;14.03;;;12.30;;
15096;SDS011;7649;52.084;7.478;2023-04-06T13:21:05;15.53;;;12.03;;
15096;SDS011;7649;52.084;7.478;2023-04-06T13:23:33;16.87;;;13.10;;
15096;SDS011;7649;52.084;7.478;2023-04-06T13:26:03;13.87;;;12.33;;
15096;SDS011;7649;52.084;7.478;2023-04-06T13:28:34;17.70;;;13.30;;
15096;SDS011;7649;52.084;7.478;2023-04-06T13:31:04;15.47;;;11.70;;
15096;SDS011;7649;52.084;7.478;2023-04-06T13:33:32;13.63;;;11.83;;
15096;SDS011;7649;52.084;7.478;2023-04-06T13:36:02;14.03;;;11.67;;
15096;SDS011;7649;52.084;7.478;2023-04-06T13:38:30;15.33;;;13.13;;
15096;SDS011;7649;52.084;7.478;2023-04-06T13:40:59;14.77;;;12.00;;
15096;SDS011;7649;52.084;7.478;2023-04-06T13:43:28;15.47;;;12.77;;
15096;SDS011;7649;52.084;7.478;2023-04-06T13:45:57;17.73;;;12.73;;
15096;SDS011;7649;52.084;7.478;2023-04-06T13:48:27;15.77;;;13.20;;
15096;SDS011;7649;52.084;7.478;2023-04-06T13:50:56;16.67;;;13.47;;
15096;SDS011;7649;52.084;7.478;2023-04-06T13:53:24;16.40;;;13.73;;
15096;SDS011;7649;52.084;7.478;2023-04-06T13:55:52;19.57;;;14.77;;
15096;SDS011;7649;52.084;7.478;2023-04-06T13:58:21;17.47;;;13.90;;
15096;SDS011;7649;52.084;7.478;2023-04-06T14:00:49;16.40;;;14.20;;
15096;SDS011;7649;52.084;7.478;2023-04-06T14:03:21;17.97;;;14.47;;
15096;SDS011;7649;52.084;7.478;2023-04-06T14:05:50;18.03;;;14.07;;
15096;SDS011;7649;52.084;7.478;2023-04-06T14:08:18;16.07;;;14.03;;
15096;SDS011;7649;52.084;7.478;2023-04-06T14:10:47;17.93;;;14.13;;
15096;SDS011;7649;52.084;7.478;2023-04-06T14:13:15;17.50;;;13.87;;
15096;SDS011;7649;52.084;7.478;2023-04-06T14:15:44;16.87;;;14.37;;
15096;SDS011;7649;52.084;7.478;2023-04-06T14:18:13;19.97;;;14.93;;
15096;SDS011;7649;52.084;7.478;2023-04-06T14:20:42;19.03;;;14.53;;
15096;SDS011;7649;52.084;7.478;2023-04-06T14:23:11;17.10;;;14.33;;
15096;SDS011;7649;52.084;7.478;2023-04-06T14:25:39;18.70;;;13.77;;
15096;SDS011;7649;52.084;7.478;2023-04-06T14:28:08;18.90;;;14.70;;
15096;SDS011;7649;52.084;7.478;2023-04-06T14:30:36;17.17;;;14.60;;
15096;SDS011;7649;52.084;7.478;2023-04-06T14:33:04;16.07;;;14.13;;
15096;SDS011;7649;52.084;7.478;2023-04-06T14:35:33;17.63;;;14.83;;
15096;SDS011;7649;52.084;7.478;2023-04-06T14:38:03;17.87;;;15.03;;
15096;SDS011;7649;52.084;7.478;2023-04-06T14:40:34;16.77;;;14.07;;
15096;SDS011;7649;52.084;7.478;2023-04-06T14:43:02;17.13;;;13.83;;
15096;SDS011;7649;52.084;7.478;2023-04-06T14:45:37;19.60;;;13.60;;
15096;SDS011;7649;52.084;7.478;2023-04-06T14:48:05;18.23;;;13.30;;
15096;SDS011;7649;52.084;7.478;2023-04-06T14:50:51;17.60;;;13.60;;
15096;SDS011;7649;52.084;7.478;2023-04-06T14:53:21;14.47;;;11.97;;
15096;SDS011;7649;52.084;7.478;2023-04-06T14:55:49;15.53;;;12.40;;
15096;SDS011;7649;52.084;7.478;2023-04-06T14:58:18;17.10;;;12.03;;